sensor_id;sensor_type;location;lat;lon;timestamp;P1;durP1;ratioP1;P2;durP2;ratioP2
43184;SDS011;28803;52.308;19.096;2023-07-09T00:02:01;9.45;;;2.78;;
43184;SDS011;28803;52.308;19.096;2023-07-09T00:04:28;4.35;;;2.85;;
43184;SDS011;28803;52.308;19.096;2023-07-09T00:06:57;6.35;;;2.22;;
43184;SDS011;28803;52.308;19.096;2023-07-09T00:09:28;4.13;;;2.75;;
43184;SDS011;28803;52.308;19.096;2023-07-09T00:11:57;4.65;;;2.50;;
43184;SDS011;28803;52.308;19.096;2023-07-09T00:14:25;4.68;;;2.55;;
43184;SDS011;28803;52.308;19.096;2023-07-09T00:16:52;9.20;;;3.65;;
43184;SDS011;28803;52.308;19.096;2023-07-09T00:19:20;3.35;;;2.25;;
43184;SDS011;28803;52.308;19.096;2023-07-09T00:21:51;4.90;;;2.72;;
43184;SDS011;28803;52.308;19.096;2023-07-09T00:24:21;5.15;;;2.60;;
43184;SDS011;28803;52.308;19.096;2023-07-09T00:26:49;5.57;;;2.80;;
43184;SDS011;28803;52.308;19.096;2023-07-09T00:29:17;4.28;;;2.97;;
43184;SDS011;28803;52.308;19.096;2023-07-09T00:31:45;3.15;;;2.50;;
43184;SDS011;28803;52.308;19.096;2023-07-09T00:34:13;7.15;;;3.05;;
43184;SDS011;28803;52.308;19.096;2023-07-09T00:36:41;5.72;;;3.33;;
43184;SDS011;28803;52.308;19.096;2023-07-09T00:39:17;4.72;;;2.58;;
43184;SDS011;28803;52.308;19.096;2023-07-09T00:41:50;4.85;;;2.78;;
43184;SDS011;28803;52.308;19.096;2023-07-09T00:52:03;9.57;;;3.00;;
43184;SDS011;28803;52.308;19.096;2023-07-09T00:54:44;6.13;;;2.80;;
43184;SDS011;28803;52.308;19.096;2023-07-09T00:57:16;4.82;;;3.00;;
43184;SDS011;28803;52.308;19.096;2023-07-09T00:59:46;8.13;;;2.67;;
43184;SDS011;28803;52.308;19.096;2023-07-09T01:02:21;4.43;;;2.92;;
43184;SDS011;28803;52.308;19.096;2023-07-09T01:04:54;5.30;;;2.55;;
43184;SDS011;28803;52.308;19.096;2023-07-09T01:07:28;3.70;;;2.67;;
43184;SDS011;28803;52.308;19.096;2023-07-09T01:09:56;5.28;;;2.65;;
43184;SDS011;28803;52.308;19.096;2023-07-09T01:12:23;4.55;;;3.03;;
43184;SDS011;28803;52.308;19.096;2023-07-09T01:14:52;5.03;;;3.13;;
43184;SDS011;28803;52.308;19.096;2023-07-09T01:17:26;3.97;;;2.83;;
43184;SDS011;28803;52.308;19.096;2023-07-09T01:19:55;5.18;;;3.03;;
43184;SDS011;28803;52.308;19.096;2023-07-09T01:22:23;6.82;;;3.55;;
43184;SDS011;28803;52.308;19.096;2023-07-09T01:27:25;4.63;;;2.40;;
43184;SDS011;28803;52.308;19.096;2023-07-09T01:29:55;6.45;;;2.50;;
43184;SDS011;28803;52.308;19.096;2023-07-09T01:32:24;6.57;;;3.22;;
43184;SDS011;28803;52.308;19.096;2023-07-09T01:34:53;5.03;;;3.08;;
43184;SDS011;28803;52.308;19.096;2023-07-09T01:37:25;6.93;;;2.58;;
43184;SDS011;28803;52.308;19.096;2023-07-09T01:39:53;4.60;;;2.95;;
43184;SDS011;28803;52.308;19.096;2023-07-09T01:42:23;5.15;;;3.10;;
43184;SDS011;28803;52.308;19.096;2023-07-09T01:44:52;4.38;;;2.67;;
43184;SDS011;28803;52.308;19.096;2023-07-09T01:47:20;4.75;;;3.08;;
43184;SDS011;28803;52.308;19.096;2023-07-09T01:49:51;6.35;;;3.00;;
43184;SDS011;28803;52.308;19.096;2023-07-09T01:52:25;4.32;;;3.20;;
43184;SDS011;28803;52.308;19.096;2023-07-09T01:54:54;7.40;;;3.17;;
43184;SDS011;28803;52.308;19.096;2023-07-09T01:57:23;5.22;;;2.83;;
43184;SDS011;28803;52.308;19.096;2023-07-09T02:00:05;4.05;;;3.15;;
43184;SDS011;28803;52.308;19.096;2023-07-09T02:02:41;4.53;;;2.75;;
43184;SDS011;28803;52.308;19.096;2023-07-09T02:05:16;4.90;;;2.88;;
43184;SDS011;28803;52.308;19.096;2023-07-09T02:07:46;4.72;;;3.85;;
43184;SDS011;28803;52.308;19.096;2023-07-09T02:10:14;6.43;;;4.03;;
43184;SDS011;28803;52.308;19.096;2023-07-09T02:12:44;4.80;;;3.10;;
43184;SDS011;28803;52.308;19.096;2023-07-09T02:15:11;4.43;;;2.58;;
43184;SDS011;28803;52.308;19.096;2023-07-09T02:17:39;4.80;;;2.88;;
43184;SDS011;28803;52.308;19.096;2023-07-09T02:20:07;6.28;;;3.38;;
43184;SDS011;28803;52.308;19.096;2023-07-09T02:22:36;5.75;;;2.90;;
43184;SDS011;28803;52.308;19.096;2023-07-09T02:25:05;4.25;;;3.03;;
43184;SDS011;28803;52.308;19.096;2023-07-09T02:27:33;4.35;;;2.90;;
43184;SDS011;28803;52.308;19.096;2023-07-09T02:30:02;7.57;;;3.25;;
43184;SDS011;28803;52.308;19.096;2023-07-09T02:32:31;4.80;;;2.70;;
43184;SDS011;28803;52.308;19.096;2023-07-09T02:34:58;4.05;;;3.17;;
43184;SDS011;28803;52.308;19.096;2023-07-09T02:37:26;5.22;;;3.50;;
43184;SDS011;28803;52.308;19.096;2023-07-09T02:39:53;6.03;;;3.00;;
43184;SDS011;28803;52.308;19.096;2023-07-09T02:42:21;6.32;;;3.40;;
43184;SDS011;28803;52.308;19.096;2023-07-09T02:44:49;5.03;;;3.17;;
43184;SDS011;28803;52.308;19.096;2023-07-09T02:47:18;4.50;;;3.30;;
43184;SDS011;28803;52.308;19.096;2023-07-09T02:49:46;4.82;;;3.33;;
43184;SDS011;28803;52.308;19.096;2023-07-09T02:52:14;4.80;;;2.92;;
43184;SDS011;28803;52.308;19.096;2023-07-09T02:54:41;4.93;;;3.38;;
43184;SDS011;28803;52.308;19.096;2023-07-09T02:57:09;4.90;;;3.58;;
43184;SDS011;28803;52.308;19.096;2023-07-09T02:59:36;5.03;;;3.10;;
43184;SDS011;28803;52.308;19.096;2023-07-09T03:02:04;5.57;;;3.05;;
43184;SDS011;28803;52.308;19.096;2023-07-09T03:04:31;4.72;;;3.45;;
43184;SDS011;28803;52.308;19.096;2023-07-09T03:06:59;6.65;;;3.70;;
43184;SDS011;28803;52.308;19.096;2023-07-09T03:09:26;6.95;;;3.85;;
43184;SDS011;28803;52.308;19.096;2023-07-09T03:11:54;4.72;;;3.67;;
43184;SDS011;28803;52.308;19.096;2023-07-09T03:14:21;6.78;;;3.85;;
43184;SDS011;28803;52.308;19.096;2023-07-09T03:16:49;6.10;;;4.22;;
43184;SDS011;28803;52.308;19.096;2023-07-09T03:19:16;5.80;;;3.70;;
43184;SDS011;28803;52.308;19.096;2023-07-09T03:21:44;7.97;;;3.60;;
43184;SDS011;28803;52.308;19.096;2023-07-09T03:24:11;5.10;;;3.28;;
43184;SDS011;28803;52.308;19.096;2023-07-09T03:26:45;4.97;;;3.53;;
43184;SDS011;28803;52.308;19.096;2023-07-09T03:29:19;6.38;;;3.13;;
43184;SDS011;28803;52.308;19.096;2023-07-09T03:31:47;5.90;;;3.63;;
43184;SDS011;28803;52.308;19.096;2023-07-09T03:34:15;4.53;;;3.25;;
43184;SDS011;28803;52.308;19.096;2023-07-09T03:36:43;8.85;;;3.70;;
43184;SDS011;28803;52.308;19.096;2023-07-09T03:39:11;5.32;;;3.35;;
43184;SDS011;28803;52.308;19.096;2023-07-09T03:41:39;7.20;;;4.22;;
43184;SDS011;28803;52.308;19.096;2023-07-09T03:44:06;7.07;;;3.47;;
43184;SDS011;28803;52.308;19.096;2023-07-09T03:46:33;5.80;;;3.10;;
43184;SDS011;28803;52.308;19.096;2023-07-09T03:49:01;6.82;;;3.58;;
43184;SDS011;28803;52.308;19.096;2023-07-09T03:51:28;5.30;;;3.65;;
43184;SDS011;28803;52.308;19.096;2023-07-09T03:53:56;9.13;;;4.13;;
43184;SDS011;28803;52.308;19.096;2023-07-09T03:56:24;5.50;;;3.58;;
43184;SDS011;28803;52.308;19.096;2023-07-09T03:58:51;4.70;;;3.13;;
43184;SDS011;28803;52.308;19.096;2023-07-09T04:01:18;5.53;;;2.95;;
43184;SDS011;28803;52.308;19.096;2023-07-09T04:03:46;4.55;;;3.13;;
43184;SDS011;28803;52.308;19.096;2023-07-09T04:06:13;7.60;;;4.13;;
43184;SDS011;28803;52.308;19.096;2023-07-09T04:08:41;7.60;;;3.80;;
43184;SDS011;28803;52.308;19.096;2023-07-09T04:11:09;5.90;;;2.88;;
43184;SDS011;28803;52.308;19.096;2023-07-09T04:13:36;7.07;;;3.45;;
43184;SDS011;28803;52.308;19.096;2023-07-09T04:16:04;3.92;;;2.85;;
43184;SDS011;28803;52.308;19.096;2023-07-09T04:18:32;4.40;;;2.97;;
43184;SDS011;28803;52.308;19.096;2023-07-09T04:21:00;4.18;;;2.80;;
43184;SDS011;28803;52.308;19.096;2023-07-09T04:23:27;5.45;;;2.80;;
43184;SDS011;28803;52.308;19.096;2023-07-09T04:25:54;5.63;;;3.22;;
43184;SDS011;28803;52.308;19.096;2023-07-09T04:28:22;9.52;;;3.05;;
43184;SDS011;28803;52.308;19.096;2023-07-09T04:30:50;3.65;;;2.78;;
43184;SDS011;28803;52.308;19.096;2023-07-09T04:33:18;6.18;;;4.15;;
43184;SDS011;28803;52.308;19.096;2023-07-09T04:35:48;4.50;;;3.13;;
43184;SDS011;28803;52.308;19.096;2023-07-09T04:38:15;5.90;;;3.08;;
43184;SDS011;28803;52.308;19.096;2023-07-09T04:40:44;4.32;;;3.08;;
43184;SDS011;28803;52.308;19.096;2023-07-09T04:43:13;5.93;;;3.35;;
43184;SDS011;28803;52.308;19.096;2023-07-09T04:45:40;6.03;;;3.38;;
43184;SDS011;28803;52.308;19.096;2023-07-09T04:48:07;4.03;;;2.45;;
43184;SDS011;28803;52.308;19.096;2023-07-09T04:50:35;4.20;;;2.75;;
43184;SDS011;28803;52.308;19.096;2023-07-09T04:53:02;7.13;;;2.95;;
43184;SDS011;28803;52.308;19.096;2023-07-09T04:55:30;8.90;;;4.10;;
43184;SDS011;28803;52.308;19.096;2023-07-09T04:57:58;6.32;;;3.60;;
43184;SDS011;28803;52.308;19.096;2023-07-09T05:00:25;4.72;;;3.00;;
43184;SDS011;28803;52.308;19.096;2023-07-09T05:02:52;4.13;;;2.53;;
43184;SDS011;28803;52.308;19.096;2023-07-09T05:05:20;4.50;;;2.47;;
43184;SDS011;28803;52.308;19.096;2023-07-09T05:07:47;4.40;;;2.58;;
43184;SDS011;28803;52.308;19.096;2023-07-09T05:10:15;5.07;;;2.00;;
43184;SDS011;28803;52.308;19.096;2023-07-09T05:12:48;3.70;;;2.08;;
43184;SDS011;28803;52.308;19.096;2023-07-09T05:15:18;4.20;;;2.28;;
43184;SDS011;28803;52.308;19.096;2023-07-09T05:17:46;5.20;;;2.40;;
43184;SDS011;28803;52.308;19.096;2023-07-09T05:20:14;3.33;;;1.75;;
43184;SDS011;28803;52.308;19.096;2023-07-09T05:22:42;4.22;;;2.05;;
43184;SDS011;28803;52.308;19.096;2023-07-09T05:25:10;2.88;;;1.88;;
43184;SDS011;28803;52.308;19.096;2023-07-09T05:27:37;3.80;;;2.40;;
43184;SDS011;28803;52.308;19.096;2023-07-09T05:30:05;6.22;;;2.40;;
43184;SDS011;28803;52.308;19.096;2023-07-09T05:32:33;7.00;;;1.58;;
43184;SDS011;28803;52.308;19.096;2023-07-09T05:35:00;3.05;;;1.58;;
43184;SDS011;28803;52.308;19.096;2023-07-09T05:37:28;2.30;;;1.33;;
43184;SDS011;28803;52.308;19.096;2023-07-09T05:39:55;3.72;;;1.20;;
43184;SDS011;28803;52.308;19.096;2023-07-09T05:42:22;2.38;;;1.38;;
43184;SDS011;28803;52.308;19.096;2023-07-09T05:44:50;3.13;;;1.63;;
43184;SDS011;28803;52.308;19.096;2023-07-09T05:47:18;3.05;;;1.33;;
43184;SDS011;28803;52.308;19.096;2023-07-09T05:49:45;2.75;;;1.52;;
43184;SDS011;28803;52.308;19.096;2023-07-09T05:52:19;5.28;;;1.35;;
43184;SDS011;28803;52.308;19.096;2023-07-09T05:54:49;2.40;;;1.45;;
43184;SDS011;28803;52.308;19.096;2023-07-09T05:57:17;5.97;;;1.98;;
43184;SDS011;28803;52.308;19.096;2023-07-09T05:59:45;4.82;;;1.42;;
43184;SDS011;28803;52.308;19.096;2023-07-09T06:02:16;3.40;;;1.65;;
43184;SDS011;28803;52.308;19.096;2023-07-09T06:04:45;2.60;;;1.10;;
43184;SDS011;28803;52.308;19.096;2023-07-09T06:07:16;1.83;;;1.13;;
43184;SDS011;28803;52.308;19.096;2023-07-09T06:09:45;2.00;;;0.88;;
43184;SDS011;28803;52.308;19.096;2023-07-09T06:12:13;2.72;;;1.17;;
43184;SDS011;28803;52.308;19.096;2023-07-09T06:14:40;4.57;;;1.45;;
43184;SDS011;28803;52.308;19.096;2023-07-09T06:17:08;6.05;;;1.23;;
43184;SDS011;28803;52.308;19.096;2023-07-09T06:19:35;2.10;;;1.38;;
43184;SDS011;28803;52.308;19.096;2023-07-09T06:22:02;1.77;;;0.95;;
43184;SDS011;28803;52.308;19.096;2023-07-09T06:24:30;3.38;;;1.20;;
43184;SDS011;28803;52.308;19.096;2023-07-09T06:26:57;2.58;;;1.42;;
43184;SDS011;28803;52.308;19.096;2023-07-09T06:29:26;5.40;;;1.27;;
43184;SDS011;28803;52.308;19.096;2023-07-09T06:31:53;2.65;;;1.10;;
43184;SDS011;28803;52.308;19.096;2023-07-09T06:34:20;4.15;;;1.40;;
43184;SDS011;28803;52.308;19.096;2023-07-09T06:36:47;2.45;;;1.30;;
43184;SDS011;28803;52.308;19.096;2023-07-09T06:39:15;2.47;;;1.15;;
43184;SDS011;28803;52.308;19.096;2023-07-09T06:41:42;2.97;;;1.15;;
43184;SDS011;28803;52.308;19.096;2023-07-09T06:44:10;2.35;;;1.13;;
43184;SDS011;28803;52.308;19.096;2023-07-09T06:46:37;5.45;;;1.63;;
43184;SDS011;28803;52.308;19.096;2023-07-09T06:49:04;2.80;;;1.08;;
43184;SDS011;28803;52.308;19.096;2023-07-09T06:51:34;1.42;;;0.77;;
43184;SDS011;28803;52.308;19.096;2023-07-09T06:54:02;2.78;;;1.10;;
43184;SDS011;28803;52.308;19.096;2023-07-09T06:56:29;2.47;;;1.10;;
43184;SDS011;28803;52.308;19.096;2023-07-09T06:58:57;3.17;;;1.23;;
43184;SDS011;28803;52.308;19.096;2023-07-09T07:01:24;2.67;;;0.80;;
43184;SDS011;28803;52.308;19.096;2023-07-09T07:03:52;1.80;;;0.80;;
43184;SDS011;28803;52.308;19.096;2023-07-09T07:06:19;1.50;;;0.68;;
43184;SDS011;28803;52.308;19.096;2023-07-09T07:08:46;3.10;;;0.90;;
43184;SDS011;28803;52.308;19.096;2023-07-09T07:11:13;2.10;;;0.80;;
43184;SDS011;28803;52.308;19.096;2023-07-09T07:13:41;2.40;;;1.02;;
43184;SDS011;28803;52.308;19.096;2023-07-09T07:16:10;2.03;;;0.82;;
43184;SDS011;28803;52.308;19.096;2023-07-09T07:18:38;1.42;;;0.90;;
43184;SDS011;28803;52.308;19.096;2023-07-09T07:21:06;2.33;;;0.95;;
43184;SDS011;28803;52.308;19.096;2023-07-09T07:23:33;1.98;;;0.77;;
43184;SDS011;28803;52.308;19.096;2023-07-09T07:26:01;1.85;;;0.90;;
43184;SDS011;28803;52.308;19.096;2023-07-09T07:28:29;2.35;;;0.60;;
43184;SDS011;28803;52.308;19.096;2023-07-09T07:30:58;3.50;;;1.67;;
43184;SDS011;28803;52.308;19.096;2023-07-09T07:33:27;2.28;;;1.23;;
43184;SDS011;28803;52.308;19.096;2023-07-09T07:35:54;2.15;;;0.73;;
43184;SDS011;28803;52.308;19.096;2023-07-09T07:38:41;5.68;;;0.60;;
43184;SDS011;28803;52.308;19.096;2023-07-09T07:41:08;0.88;;;0.35;;
43184;SDS011;28803;52.308;19.096;2023-07-09T07:43:36;1.30;;;0.65;;
43184;SDS011;28803;52.308;19.096;2023-07-09T07:46:03;1.55;;;0.82;;
43184;SDS011;28803;52.308;19.096;2023-07-09T07:48:31;1.15;;;0.70;;
43184;SDS011;28803;52.308;19.096;2023-07-09T07:50:59;1.75;;;0.90;;
43184;SDS011;28803;52.308;19.096;2023-07-09T07:53:29;2.03;;;0.82;;
43184;SDS011;28803;52.308;19.096;2023-07-09T07:55:57;2.90;;;0.82;;
43184;SDS011;28803;52.308;19.096;2023-07-09T07:58:25;1.77;;;0.70;;
43184;SDS011;28803;52.308;19.096;2023-07-09T08:00:56;3.80;;;1.20;;
43184;SDS011;28803;52.308;19.096;2023-07-09T08:03:24;1.25;;;0.63;;
43184;SDS011;28803;52.308;19.096;2023-07-09T08:05:52;1.92;;;0.60;;
43184;SDS011;28803;52.308;19.096;2023-07-09T08:08:20;1.90;;;1.10;;
43184;SDS011;28803;52.308;19.096;2023-07-09T08:10:49;2.28;;;0.65;;
43184;SDS011;28803;52.308;19.096;2023-07-09T08:13:17;1.02;;;0.52;;
43184;SDS011;28803;52.308;19.096;2023-07-09T08:15:45;1.55;;;0.50;;
43184;SDS011;28803;52.308;19.096;2023-07-09T08:18:14;1.45;;;0.73;;
43184;SDS011;28803;52.308;19.096;2023-07-09T08:20:44;3.05;;;0.40;;
43184;SDS011;28803;52.308;19.096;2023-07-09T08:23:12;1.33;;;0.40;;
43184;SDS011;28803;52.308;19.096;2023-07-09T08:25:39;1.48;;;0.80;;
43184;SDS011;28803;52.308;19.096;2023-07-09T08:28:06;1.83;;;0.70;;
43184;SDS011;28803;52.308;19.096;2023-07-09T08:30:34;1.70;;;0.45;;
43184;SDS011;28803;52.308;19.096;2023-07-09T08:33:02;2.00;;;0.68;;
43184;SDS011;28803;52.308;19.096;2023-07-09T08:35:30;1.42;;;0.50;;
43184;SDS011;28803;52.308;19.096;2023-07-09T08:38:03;0.95;;;0.52;;
43184;SDS011;28803;52.308;19.096;2023-07-09T08:40:30;0.90;;;0.35;;
43184;SDS011;28803;52.308;19.096;2023-07-09T08:43:02;1.63;;;0.50;;
43184;SDS011;28803;52.308;19.096;2023-07-09T08:45:54;1.20;;;0.57;;
43184;SDS011;28803;52.308;19.096;2023-07-09T08:48:31;2.42;;;1.17;;
43184;SDS011;28803;52.308;19.096;2023-07-09T08:51:43;3.53;;;0.63;;
43184;SDS011;28803;52.308;19.096;2023-07-09T08:54:01;3.78;;;1.00;;
43184;SDS011;28803;52.308;19.096;2023-07-09T08:56:31;2.45;;;0.70;;
43184;SDS011;28803;52.308;19.096;2023-07-09T08:59:01;0.73;;;0.57;;
43184;SDS011;28803;52.308;19.096;2023-07-09T09:01:40;1.95;;;0.88;;
43184;SDS011;28803;52.308;19.096;2023-07-09T09:04:21;1.67;;;0.70;;
43184;SDS011;28803;52.308;19.096;2023-07-09T09:06:51;1.75;;;0.60;;
43184;SDS011;28803;52.308;19.096;2023-07-09T09:09:39;3.25;;;1.15;;
43184;SDS011;28803;52.308;19.096;2023-07-09T09:12:28;2.28;;;0.85;;
43184;SDS011;28803;52.308;19.096;2023-07-09T09:15:19;0.82;;;0.40;;
43184;SDS011;28803;52.308;19.096;2023-07-09T09:17:48;1.88;;;0.65;;
43184;SDS011;28803;52.308;19.096;2023-07-09T09:20:21;2.75;;;0.55;;
43184;SDS011;28803;52.308;19.096;2023-07-09T09:23:01;2.72;;;0.70;;
43184;SDS011;28803;52.308;19.096;2023-07-09T09:25:41;1.40;;;0.60;;
43184;SDS011;28803;52.308;19.096;2023-07-09T09:28:13;1.85;;;0.57;;
43184;SDS011;28803;52.308;19.096;2023-07-09T09:30:44;4.00;;;1.17;;
43184;SDS011;28803;52.308;19.096;2023-07-09T09:35:44;2.15;;;0.85;;
43184;SDS011;28803;52.308;19.096;2023-07-09T09:38:21;1.77;;;0.68;;
43184;SDS011;28803;52.308;19.096;2023-07-09T09:40:49;2.22;;;0.63;;
43184;SDS011;28803;52.308;19.096;2023-07-09T09:43:18;1.50;;;0.85;;
43184;SDS011;28803;52.308;19.096;2023-07-09T09:45:48;2.40;;;0.67;;
43184;SDS011;28803;52.308;19.096;2023-07-09T09:48:20;1.27;;;0.60;;
43184;SDS011;28803;52.308;19.096;2023-07-09T09:50:55;1.15;;;0.60;;
43184;SDS011;28803;52.308;19.096;2023-07-09T09:53:28;1.33;;;0.85;;
43184;SDS011;28803;52.308;19.096;2023-07-09T09:56:03;1.35;;;0.68;;
43184;SDS011;28803;52.308;19.096;2023-07-09T09:58:32;1.70;;;0.52;;
43184;SDS011;28803;52.308;19.096;2023-07-09T10:01:00;1.92;;;0.73;;
43184;SDS011;28803;52.308;19.096;2023-07-09T10:03:35;1.98;;;0.70;;
43184;SDS011;28803;52.308;19.096;2023-07-09T10:06:17;2.78;;;0.80;;
43184;SDS011;28803;52.308;19.096;2023-07-09T10:08:58;1.33;;;0.52;;
43184;SDS011;28803;52.308;19.096;2023-07-09T10:14:34;1.30;;;0.70;;
43184;SDS011;28803;52.308;19.096;2023-07-09T10:19:59;1.02;;;0.60;;
43184;SDS011;28803;52.308;19.096;2023-07-09T10:22:53;1.55;;;0.77;;
43184;SDS011;28803;52.308;19.096;2023-07-09T10:33:56;1.15;;;0.47;;
43184;SDS011;28803;52.308;19.096;2023-07-09T10:40:10;1.35;;;0.32;;
43184;SDS011;28803;52.308;19.096;2023-07-09T10:42:50;0.82;;;0.43;;
43184;SDS011;28803;52.308;19.096;2023-07-09T10:45:23;0.95;;;0.40;;
43184;SDS011;28803;52.308;19.096;2023-07-09T10:48:25;0.85;;;0.55;;
43184;SDS011;28803;52.308;19.096;2023-07-09T10:51:07;0.85;;;0.28;;
43184;SDS011;28803;52.308;19.096;2023-07-09T10:53:58;1.00;;;0.40;;
43184;SDS011;28803;52.308;19.096;2023-07-09T10:56:28;0.68;;;0.40;;
43184;SDS011;28803;52.308;19.096;2023-07-09T11:04:47;0.88;;;0.30;;
43184;SDS011;28803;52.308;19.096;2023-07-09T11:07:22;1.08;;;0.30;;
43184;SDS011;28803;52.308;19.096;2023-07-09T11:10:00;0.60;;;0.35;;
43184;SDS011;28803;52.308;19.096;2023-07-09T11:15:13;0.30;;;0.20;;
43184;SDS011;28803;52.308;19.096;2023-07-09T11:17:44;0.60;;;0.20;;
43184;SDS011;28803;52.308;19.096;2023-07-09T11:20:17;0.50;;;0.40;;
43184;SDS011;28803;52.308;19.096;2023-07-09T11:22:51;0.60;;;0.28;;
43184;SDS011;28803;52.308;19.096;2023-07-09T11:28:11;0.28;;;0.15;;
43184;SDS011;28803;52.308;19.096;2023-07-09T11:30:46;1.60;;;0.30;;
43184;SDS011;28803;52.308;19.096;2023-07-09T11:33:17;0.68;;;0.30;;
43184;SDS011;28803;52.308;19.096;2023-07-09T11:35:53;0.50;;;0.25;;
43184;SDS011;28803;52.308;19.096;2023-07-09T11:44:23;0.82;;;0.40;;
43184;SDS011;28803;52.308;19.096;2023-07-09T11:49:58;0.52;;;0.25;;
43184;SDS011;28803;52.308;19.096;2023-07-09T11:58:09;1.08;;;0.30;;
43184;SDS011;28803;52.308;19.096;2023-07-09T12:00:42;1.67;;;0.57;;
43184;SDS011;28803;52.308;19.096;2023-07-09T12:03:43;0.95;;;0.30;;
43184;SDS011;28803;52.308;19.096;2023-07-09T12:06:22;1.38;;;0.30;;
43184;SDS011;28803;52.308;19.096;2023-07-09T12:08:52;0.65;;;0.35;;
43184;SDS011;28803;52.308;19.096;2023-07-09T12:11:25;0.68;;;0.35;;
43184;SDS011;28803;52.308;19.096;2023-07-09T12:14:05;1.50;;;0.43;;
43184;SDS011;28803;52.308;19.096;2023-07-09T12:16:39;1.27;;;0.70;;
43184;SDS011;28803;52.308;19.096;2023-07-09T12:19:12;2.40;;;1.23;;
43184;SDS011;28803;52.308;19.096;2023-07-09T12:21:43;4.68;;;0.32;;
43184;SDS011;28803;52.308;19.096;2023-07-09T12:24:17;1.48;;;0.82;;
43184;SDS011;28803;52.308;19.096;2023-07-09T12:26:51;1.17;;;0.38;;
43184;SDS011;28803;52.308;19.096;2023-07-09T12:29:29;1.33;;;0.30;;
43184;SDS011;28803;52.308;19.096;2023-07-09T12:32:11;2.30;;;0.45;;
43184;SDS011;28803;52.308;19.096;2023-07-09T12:34:53;0.82;;;0.40;;
43184;SDS011;28803;52.308;19.096;2023-07-09T12:37:23;0.40;;;0.30;;
43184;SDS011;28803;52.308;19.096;2023-07-09T12:39:54;0.47;;;0.25;;
43184;SDS011;28803;52.308;19.096;2023-07-09T12:42:29;0.60;;;0.40;;
43184;SDS011;28803;52.308;19.096;2023-07-09T12:44:59;0.65;;;0.40;;
43184;SDS011;28803;52.308;19.096;2023-07-09T12:47:27;0.45;;;0.30;;
43184;SDS011;28803;52.308;19.096;2023-07-09T12:50:15;0.88;;;0.40;;
43184;SDS011;28803;52.308;19.096;2023-07-09T12:52:46;1.17;;;0.40;;
43184;SDS011;28803;52.308;19.096;2023-07-09T12:55:19;1.33;;;0.50;;
43184;SDS011;28803;52.308;19.096;2023-07-09T12:57:55;0.70;;;0.20;;
43184;SDS011;28803;52.308;19.096;2023-07-09T13:00:31;2.42;;;0.50;;
43184;SDS011;28803;52.308;19.096;2023-07-09T13:02:59;0.60;;;0.30;;
43184;SDS011;28803;52.308;19.096;2023-07-09T13:05:27;1.08;;;0.40;;
43184;SDS011;28803;52.308;19.096;2023-07-09T13:07:58;2.08;;;0.30;;
43184;SDS011;28803;52.308;19.096;2023-07-09T13:10:28;0.98;;;0.30;;
43184;SDS011;28803;52.308;19.096;2023-07-09T13:13:05;0.93;;;0.35;;
43184;SDS011;28803;52.308;19.096;2023-07-09T13:18:10;2.10;;;0.30;;
43184;SDS011;28803;52.308;19.096;2023-07-09T13:20:39;0.85;;;0.50;;
43184;SDS011;28803;52.308;19.096;2023-07-09T13:23:10;0.65;;;0.32;;
43184;SDS011;28803;52.308;19.096;2023-07-09T13:25:39;1.30;;;0.50;;
43184;SDS011;28803;52.308;19.096;2023-07-09T13:28:15;0.50;;;0.30;;
43184;SDS011;28803;52.308;19.096;2023-07-09T13:33:42;0.70;;;0.30;;
43184;SDS011;28803;52.308;19.096;2023-07-09T13:36:10;0.73;;;0.30;;
43184;SDS011;28803;52.308;19.096;2023-07-09T13:38:38;2.05;;;0.40;;
43184;SDS011;28803;52.308;19.096;2023-07-09T13:41:13;0.60;;;0.35;;
43184;SDS011;28803;52.308;19.096;2023-07-09T13:43:45;0.60;;;0.40;;
43184;SDS011;28803;52.308;19.096;2023-07-09T13:46:14;2.00;;;0.30;;
43184;SDS011;28803;52.308;19.096;2023-07-09T13:48:42;0.70;;;0.40;;
43184;SDS011;28803;52.308;19.096;2023-07-09T13:53:44;1.00;;;0.60;;
43184;SDS011;28803;52.308;19.096;2023-07-09T13:56:12;0.40;;;0.20;;
43184;SDS011;28803;52.308;19.096;2023-07-09T13:58:40;0.85;;;0.30;;
43184;SDS011;28803;52.308;19.096;2023-07-09T14:01:14;0.70;;;0.40;;
43184;SDS011;28803;52.308;19.096;2023-07-09T14:03:45;1.02;;;0.43;;
43184;SDS011;28803;52.308;19.096;2023-07-09T14:06:13;0.45;;;0.20;;
43184;SDS011;28803;52.308;19.096;2023-07-09T14:08:42;0.50;;;0.30;;
43184;SDS011;28803;52.308;19.096;2023-07-09T14:11:10;0.60;;;0.30;;
43184;SDS011;28803;52.308;19.096;2023-07-09T14:13:44;1.35;;;0.45;;
43184;SDS011;28803;52.308;19.096;2023-07-09T14:16:12;1.05;;;0.40;;
43184;SDS011;28803;52.308;19.096;2023-07-09T14:18:42;1.02;;;0.28;;
43184;SDS011;28803;52.308;19.096;2023-07-09T14:21:13;1.35;;;0.47;;
43184;SDS011;28803;52.308;19.096;2023-07-09T14:23:45;0.52;;;0.30;;
43184;SDS011;28803;52.308;19.096;2023-07-09T14:26:12;1.88;;;0.75;;
43184;SDS011;28803;52.308;19.096;2023-07-09T14:28:40;3.00;;;0.60;;
43184;SDS011;28803;52.308;19.096;2023-07-09T14:31:13;0.65;;;0.20;;
43184;SDS011;28803;52.308;19.096;2023-07-09T14:33:47;1.40;;;0.40;;
43184;SDS011;28803;52.308;19.096;2023-07-09T14:36:14;0.70;;;0.38;;
43184;SDS011;28803;52.308;19.096;2023-07-09T14:38:41;0.60;;;0.40;;
43184;SDS011;28803;52.308;19.096;2023-07-09T14:41:19;0.80;;;0.40;;
43184;SDS011;28803;52.308;19.096;2023-07-09T14:43:49;1.55;;;0.30;;
43184;SDS011;28803;52.308;19.096;2023-07-09T14:46:16;0.30;;;0.20;;
43184;SDS011;28803;52.308;19.096;2023-07-09T14:48:44;0.93;;;0.30;;
43184;SDS011;28803;52.308;19.096;2023-07-09T14:51:14;0.45;;;0.25;;
43184;SDS011;28803;52.308;19.096;2023-07-09T14:53:42;0.80;;;0.30;;
43184;SDS011;28803;52.308;19.096;2023-07-09T14:56:12;1.02;;;0.30;;
43184;SDS011;28803;52.308;19.096;2023-07-09T14:58:40;1.00;;;0.40;;
43184;SDS011;28803;52.308;19.096;2023-07-09T15:01:17;1.63;;;0.80;;
43184;SDS011;28803;52.308;19.096;2023-07-09T15:03:44;0.50;;;0.30;;
43184;SDS011;28803;52.308;19.096;2023-07-09T15:06:11;0.88;;;0.40;;
43184;SDS011;28803;52.308;19.096;2023-07-09T15:08:39;2.17;;;0.30;;
43184;SDS011;28803;52.308;19.096;2023-07-09T15:11:07;2.88;;;1.23;;
43184;SDS011;28803;52.308;19.096;2023-07-09T15:13:36;1.20;;;0.40;;
43184;SDS011;28803;52.308;19.096;2023-07-09T15:16:03;1.27;;;0.45;;
43184;SDS011;28803;52.308;19.096;2023-07-09T15:18:31;1.70;;;0.50;;
43184;SDS011;28803;52.308;19.096;2023-07-09T15:21:03;3.10;;;0.32;;
43184;SDS011;28803;52.308;19.096;2023-07-09T15:23:32;0.52;;;0.28;;
43184;SDS011;28803;52.308;19.096;2023-07-09T15:26:04;1.85;;;0.50;;
43184;SDS011;28803;52.308;19.096;2023-07-09T15:28:39;0.98;;;0.40;;
43184;SDS011;28803;52.308;19.096;2023-07-09T15:31:07;0.30;;;0.20;;
43184;SDS011;28803;52.308;19.096;2023-07-09T15:33:37;2.80;;;1.00;;
43184;SDS011;28803;52.308;19.096;2023-07-09T15:36:08;2.20;;;0.73;;
43184;SDS011;28803;52.308;19.096;2023-07-09T15:38:38;0.65;;;0.35;;
43184;SDS011;28803;52.308;19.096;2023-07-09T15:41:12;2.70;;;0.55;;
43184;SDS011;28803;52.308;19.096;2023-07-09T15:43:41;0.75;;;0.38;;
43184;SDS011;28803;52.308;19.096;2023-07-09T15:46:17;2.72;;;1.13;;
43184;SDS011;28803;52.308;19.096;2023-07-09T15:48:47;1.48;;;0.82;;
43184;SDS011;28803;52.308;19.096;2023-07-09T15:51:16;4.07;;;0.30;;
43184;SDS011;28803;52.308;19.096;2023-07-09T15:53:44;3.80;;;0.40;;
43184;SDS011;28803;52.308;19.096;2023-07-09T15:56:32;1.30;;;0.65;;
43184;SDS011;28803;52.308;19.096;2023-07-09T15:59:00;2.17;;;0.50;;